sensor_id;sensor_type;location;lat;lon;timestamp;temperature;humidity
52459;DHT22;38372;52.902;6.024;2022-11-15T00:02:40;6.80;99.90
52459;DHT22;38372;52.902;6.024;2022-11-15T00:05:40;6.90;99.90
52459;DHT22;38372;52.902;6.024;2022-11-15T00:11:46;7.00;99.90
52459;DHT22;38372;52.902;6.024;2022-11-15T00:14:42;7.10;99.90
52459;DHT22;38372;52.902;6.024;2022-11-15T00:17:48;7.20;99.90
52459;DHT22;38372;52.902;6.024;2022-11-15T00:20:39;7.20;99.90
52459;DHT22;38372;52.902;6.024;2022-11-15T00:23:27;7.30;99.90
52459;DHT22;38372;52.902;6.024;2022-11-15T00:26:28;7.30;99.90
52459;DHT22;38372;52.902;6.024;2022-11-15T00:29:38;7.30;99.90
52459;DHT22;38372;52.902;6.024;2022-11-15T00:32:41;7.30;99.90
52459;DHT22;38372;52.902;6.024;2022-11-15T00:36:01;7.30;99.90
52459;DHT22;38372;52.902;6.024;2022-11-15T00:39:20;7.20;99.90
52459;DHT22;38372;52.902;6.024;2022-11-15T00:42:15;7.20;99.90
52459;DHT22;38372;52.902;6.024;2022-11-15T00:45:25;7.10;99.90
52459;DHT22;38372;52.902;6.024;2022-11-15T00:48:22;7.10;99.90
52459;DHT22;38372;52.902;6.024;2022-11-15T00:51:32;7.10;99.90
52459;DHT22;38372;52.902;6.024;2022-11-15T00:54:41;7.10;99.90
52459;DHT22;38372;52.902;6.024;2022-11-15T00:57:36;7.00;99.90
52459;DHT22;38372;52.902;6.024;2022-11-15T01:00:44;7.00;99.90
52459;DHT22;38372;52.902;6.024;2022-11-15T01:03:49;7.00;99.90
52459;DHT22;38372;52.902;6.024;2022-11-15T01:06:44;6.90;99.90
52459;DHT22;38372;52.902;6.024;2022-11-15T01:09:16;6.90;99.90
52459;DHT22;38372;52.902;6.024;2022-11-15T01:11:58;6.90;99.90
52459;DHT22;38372;52.902;6.024;2022-11-15T01:14:36;6.80;99.90
52459;DHT22;38372;52.902;6.024;2022-11-15T01:17:15;6.80;99.90
52459;DHT22;38372;52.902;6.024;2022-11-15T01:19:54;6.70;99.90
52459;DHT22;38372;52.902;6.024;2022-11-15T01:22:38;6.70;99.90
52459;DHT22;38372;52.902;6.024;2022-11-15T01:25:20;6.70;99.90
52459;DHT22;38372;52.902;6.024;2022-11-15T01:28:07;6.70;99.90
52459;DHT22;38372;52.902;6.024;2022-11-15T01:30:52;6.70;99.90
52459;DHT22;38372;52.902;6.024;2022-11-15T01:33:40;6.70;99.90
52459;DHT22;38372;52.902;6.024;2022-11-15T01:36:35;6.70;99.90
52459;DHT22;38372;52.902;6.024;2022-11-15T01:39:12;6.70;99.90
52459;DHT22;38372;52.902;6.024;2022-11-15T01:42:11;6.70;99.90
52459;DHT22;38372;52.902;6.024;2022-11-15T01:44:58;6.70;99.90
52459;DHT22;38372;52.902;6.024;2022-11-15T01:47:42;6.70;99.90
52459;DHT22;38372;52.902;6.024;2022-11-15T01:50:30;6.70;99.90
52459;DHT22;38372;52.902;6.024;2022-11-15T01:53:12;6.70;99.90
52459;DHT22;38372;52.902;6.024;2022-11-15T01:56:02;6.70;99.90
52459;DHT22;38372;52.902;6.024;2022-11-15T01:58:49;6.70;99.90
52459;DHT22;38372;52.902;6.024;2022-11-15T02:01:42;6.70;99.90
52459;DHT22;38372;52.902;6.024;2022-11-15T02:04:34;6.80;99.90
52459;DHT22;38372;52.902;6.024;2022-11-15T02:07:27;6.70;99.90
52459;DHT22;38372;52.902;6.024;2022-11-15T02:10:42;6.80;99.90
52459;DHT22;38372;52.902;6.024;2022-11-15T02:14:12;6.80;99.90
52459;DHT22;38372;52.902;6.024;2022-11-15T02:33:01;6.90;99.90
52459;DHT22;38372;52.902;6.024;2022-11-15T02:39:47;7.00;99.90
52459;DHT22;38372;52.902;6.024;2022-11-15T02:43:12;7.00;99.90
52459;DHT22;38372;52.902;6.024;2022-11-15T02:50:42;7.10;99.90
52459;DHT22;38372;52.902;6.024;2022-11-15T02:54:33;7.20;99.90
52459;DHT22;38372;52.902;6.024;2022-11-15T03:11:59;7.30;99.90
52459;DHT22;38372;52.902;6.024;2022-11-15T03:15:32;7.40;99.90
52459;DHT22;38372;52.902;6.024;2022-11-15T03:22:38;7.50;99.90
52459;DHT22;38372;52.902;6.024;2022-11-15T03:25:58;7.50;99.90
52459;DHT22;38372;52.902;6.024;2022-11-15T03:29:44;7.60;99.90
52459;DHT22;38372;52.902;6.024;2022-11-15T03:33:13;7.60;99.90
52459;DHT22;38372;52.902;6.024;2022-11-15T03:36:31;7.60;99.90
52459;DHT22;38372;52.902;6.024;2022-11-15T03:39:55;7.60;99.90
52459;DHT22;38372;52.902;6.024;2022-11-15T03:50:33;7.70;99.90
52459;DHT22;38372;52.902;6.024;2022-11-15T03:53:42;7.70;99.90
52459;DHT22;38372;52.902;6.024;2022-11-15T03:56:28;7.80;99.90
52459;DHT22;38372;52.902;6.024;2022-11-15T03:59:42;7.80;99.90
52459;DHT22;38372;52.902;6.024;2022-11-15T04:02:41;7.80;99.90
52459;DHT22;38372;52.902;6.024;2022-11-15T04:05:40;7.90;99.90
52459;DHT22;38372;52.902;6.024;2022-11-15T04:09:00;7.90;99.90
52459;DHT22;38372;52.902;6.024;2022-11-15T04:11:43;7.90;99.90
52459;DHT22;38372;52.902;6.024;2022-11-15T04:14:28;8.00;99.90
52459;DHT22;38372;52.902;6.024;2022-11-15T04:17:24;8.00;99.90
52459;DHT22;38372;52.902;6.024;2022-11-15T04:20:42;8.00;99.90
52459;DHT22;38372;52.902;6.024;2022-11-15T04:24:26;8.10;99.90
52459;DHT22;38372;52.902;6.024;2022-11-15T04:27:42;8.10;99.90
52459;DHT22;38372;52.902;6.024;2022-11-15T04:31:08;8.20;99.90
52459;DHT22;38372;52.902;6.024;2022-11-15T04:37:32;8.30;99.90
52459;DHT22;38372;52.902;6.024;2022-11-15T04:40:38;8.30;99.90
52459;DHT22;38372;52.902;6.024;2022-11-15T04:43:50;8.40;99.90
52459;DHT22;38372;52.902;6.024;2022-11-15T04:46:54;8.40;99.90
52459;DHT22;38372;52.902;6.024;2022-11-15T04:50:00;8.50;99.90
52459;DHT22;38372;52.902;6.024;2022-11-15T04:53:03;8.60;99.90
52459;DHT22;38372;52.902;6.024;2022-11-15T04:56:26;8.60;99.90
52459;DHT22;38372;52.902;6.024;2022-11-15T04:59:42;8.70;99.90
52459;DHT22;38372;52.902;6.024;2022-11-15T05:02:48;8.70;99.90
52459;DHT22;38372;52.902;6.024;2022-11-15T05:05:52;8.80;99.90
52459;DHT22;38372;52.902;6.024;2022-11-15T05:08:52;8.90;99.90
52459;DHT22;38372;52.902;6.024;2022-11-15T05:11:57;8.90;99.90
52459;DHT22;38372;52.902;6.024;2022-11-15T05:15:20;9.00;99.90
52459;DHT22;38372;52.902;6.024;2022-11-15T05:18:42;9.00;99.90
52459;DHT22;38372;52.902;6.024;2022-11-15T05:22:00;9.00;99.90
52459;DHT22;38372;52.902;6.024;2022-11-15T05:25:32;9.10;99.90
52459;DHT22;38372;52.902;6.024;2022-11-15T05:29:00;9.10;99.90
52459;DHT22;38372;52.902;6.024;2022-11-15T05:32:51;9.20;99.90
52459;DHT22;38372;52.902;6.024;2022-11-15T05:36:42;9.30;99.90
52459;DHT22;38372;52.902;6.024;2022-11-15T05:40:00;9.30;99.90
52459;DHT22;38372;52.902;6.024;2022-11-15T05:43:26;9.30;99.90
52459;DHT22;38372;52.902;6.024;2022-11-15T05:46:39;9.40;99.90
52459;DHT22;38372;52.902;6.024;2022-11-15T05:50:05;9.40;99.90
52459;DHT22;38372;52.902;6.024;2022-11-15T05:53:00;9.50;99.90
52459;DHT22;38372;52.902;6.024;2022-11-15T05:56:32;9.50;99.90
52459;DHT22;38372;52.902;6.024;2022-11-15T06:03:29;9.50;99.90
52459;DHT22;38372;52.902;6.024;2022-11-15T06:06:36;9.50;99.90
52459;DHT22;38372;52.902;6.024;2022-11-15T06:09:24;9.60;99.90
52459;DHT22;38372;52.902;6.024;2022-11-15T06:13:04;9.60;99.90
52459;DHT22;38372;52.902;6.024;2022-11-15T06:16:38;9.70;99.90
52459;DHT22;38372;52.902;6.024;2022-11-15T06:19:59;9.70;99.90
52459;DHT22;38372;52.902;6.024;2022-11-15T06:23:19;9.70;99.90
52459;DHT22;38372;52.902;6.024;2022-11-15T06:26:28;9.80;99.90
52459;DHT22;38372;52.902;6.024;2022-11-15T06:30:25;9.80;99.90
52459;DHT22;38372;52.902;6.024;2022-11-15T06:33:42;9.80;99.90
52459;DHT22;38372;52.902;6.024;2022-11-15T06:37:04;9.90;99.90
52459;DHT22;38372;52.902;6.024;2022-11-15T06:40:29;9.90;99.90
52459;DHT22;38372;52.902;6.024;2022-11-15T06:43:30;9.90;99.90
52459;DHT22;38372;52.902;6.024;2022-11-15T06:47:06;10.00;99.90
52459;DHT22;38372;52.902;6.024;2022-11-15T06:49:59;10.00;99.90
52459;DHT22;38372;52.902;6.024;2022-11-15T06:53:15;10.00;99.90
52459;DHT22;38372;52.902;6.024;2022-11-15T06:58:27;10.10;99.90
52459;DHT22;38372;52.902;6.024;2022-11-15T07:01:19;10.10;99.90
52459;DHT22;38372;52.902;6.024;2022-11-15T07:04:25;10.10;99.90
52459;DHT22;38372;52.902;6.024;2022-11-15T09:08:18;11.20;99.90
52459;DHT22;38372;52.902;6.024;2022-11-15T09:10:44;11.30;99.90
52459;DHT22;38372;52.902;6.024;2022-11-15T09:13:10;11.30;99.90
52459;DHT22;38372;52.902;6.024;2022-11-15T09:15:36;11.40;99.90
52459;DHT22;38372;52.902;6.024;2022-11-15T09:18:03;11.40;99.90
52459;DHT22;38372;52.902;6.024;2022-11-15T09:20:32;11.50;99.90
52459;DHT22;38372;52.902;6.024;2022-11-15T09:23:00;11.70;99.90
52459;DHT22;38372;52.902;6.024;2022-11-15T09:25:27;11.90;99.90
52459;DHT22;38372;52.902;6.024;2022-11-15T09:27:54;11.80;99.90
52459;DHT22;38372;52.902;6.024;2022-11-15T09:30:20;11.70;99.90
52459;DHT22;38372;52.902;6.024;2022-11-15T09:32:47;11.70;99.90
52459;DHT22;38372;52.902;6.024;2022-11-15T09:35:13;11.70;99.90
52459;DHT22;38372;52.902;6.024;2022-11-15T09:37:40;11.70;99.90
52459;DHT22;38372;52.902;6.024;2022-11-15T09:40:11;11.70;99.90
52459;DHT22;38372;52.902;6.024;2022-11-15T09:43:11;11.70;99.90
52459;DHT22;38372;52.902;6.024;2022-11-15T09:46:32;11.60;99.90
52459;DHT22;38372;52.902;6.024;2022-11-15T09:49:03;11.60;99.90
52459;DHT22;38372;52.902;6.024;2022-11-15T09:51:38;11.60;99.90
52459;DHT22;38372;52.902;6.024;2022-11-15T09:54:26;11.60;99.90
52459;DHT22;38372;52.902;6.024;2022-11-15T09:57:02;11.60;99.90
52459;DHT22;38372;52.902;6.024;2022-11-15T10:05:20;11.80;99.90
52459;DHT22;38372;52.902;6.024;2022-11-15T10:12:55;12.30;99.90
52459;DHT22;38372;52.902;6.024;2022-11-15T10:15:21;12.30;99.90
52459;DHT22;38372;52.902;6.024;2022-11-15T10:20:49;12.20;99.90
52459;DHT22;38372;52.902;6.024;2022-11-15T10:23:23;12.20;99.90
52459;DHT22;38372;52.902;6.024;2022-11-15T10:26:04;12.20;99.90
52459;DHT22;38372;52.902;6.024;2022-11-15T10:28:33;12.20;99.90
52459;DHT22;38372;52.902;6.024;2022-11-15T10:31:01;12.30;99.90
52459;DHT22;38372;52.902;6.024;2022-11-15T10:33:36;12.40;99.90
52459;DHT22;38372;52.902;6.024;2022-11-15T10:41:20;12.40;99.90
52459;DHT22;38372;52.902;6.024;2022-11-15T10:46:30;12.30;99.90
52459;DHT22;38372;52.902;6.024;2022-11-15T10:49:16;12.20;99.90
52459;DHT22;38372;52.902;6.024;2022-11-15T10:51:49;12.20;99.90
52459;DHT22;38372;52.902;6.024;2022-11-15T10:54:23;12.10;99.90
52459;DHT22;38372;52.902;6.024;2022-11-15T10:56:54;12.10;99.90
52459;DHT22;38372;52.902;6.024;2022-11-15T10:59:39;12.10;99.90
52459;DHT22;38372;52.902;6.024;2022-11-15T11:05:38;12.10;99.90
52459;DHT22;38372;52.902;6.024;2022-11-15T11:08:25;12.10;99.90
52459;DHT22;38372;52.902;6.024;2022-11-15T11:10:53;12.00;99.90
52459;DHT22;38372;52.902;6.024;2022-11-15T11:13:46;12.10;99.90
52459;DHT22;38372;52.902;6.024;2022-11-15T11:16:38;12.00;99.90
52459;DHT22;38372;52.902;6.024;2022-11-15T11:25:09;12.10;99.90
52459;DHT22;38372;52.902;6.024;2022-11-15T11:30:23;12.20;99.90
52459;DHT22;38372;52.902;6.024;2022-11-15T11:33:03;12.20;99.90
52459;DHT22;38372;52.902;6.024;2022-11-15T11:35:50;12.20;99.90
52459;DHT22;38372;52.902;6.024;2022-11-15T11:46:58;12.50;99.90
52459;DHT22;38372;52.902;6.024;2022-11-15T11:50:15;12.70;99.90
52459;DHT22;38372;52.902;6.024;2022-11-15T11:53:01;12.90;99.90
52459;DHT22;38372;52.902;6.024;2022-11-15T12:00:46;13.40;99.90
52459;DHT22;38372;52.902;6.024;2022-11-15T12:03:40;13.50;99.90
52459;DHT22;38372;52.902;6.024;2022-11-15T12:06:30;13.40;99.90
52459;DHT22;38372;52.902;6.024;2022-11-15T12:09:07;13.20;99.90
52459;DHT22;38372;52.902;6.024;2022-11-15T12:11:49;13.10;99.90
52459;DHT22;38372;52.902;6.024;2022-11-15T12:14:32;13.00;99.90
52459;DHT22;38372;52.902;6.024;2022-11-15T12:16:59;13.00;99.90
52459;DHT22;38372;52.902;6.024;2022-11-15T12:19:27;13.00;99.90
52459;DHT22;38372;52.902;6.024;2022-11-15T12:22:22;13.00;99.90
52459;DHT22;38372;52.902;6.024;2022-11-15T12:30:18;12.90;99.90
52459;DHT22;38372;52.902;6.024;2022-11-15T12:32:59;12.90;99.90
52459;DHT22;38372;52.902;6.024;2022-11-15T12:35:42;12.80;99.90
52459;DHT22;38372;52.902;6.024;2022-11-15T12:41:18;12.70;99.90
52459;DHT22;38372;52.902;6.024;2022-11-15T12:43:46;12.70;99.90
52459;DHT22;38372;52.902;6.024;2022-11-15T12:48:58;12.60;99.90
52459;DHT22;38372;52.902;6.024;2022-11-15T13:02:39;12.50;99.90
52459;DHT22;38372;52.902;6.024;2022-11-15T13:17:45;12.40;99.90
52459;DHT22;38372;52.902;6.024;2022-11-15T13:27:56;12.40;99.90
52459;DHT22;38372;52.902;6.024;2022-11-15T13:30:30;12.40;99.90
52459;DHT22;38372;52.902;6.024;2022-11-15T13:33:09;12.40;99.90
52459;DHT22;38372;52.902;6.024;2022-11-15T13:35:40;12.40;99.90
52459;DHT22;38372;52.902;6.024;2022-11-15T13:40:51;12.30;99.90
52459;DHT22;38372;52.902;6.024;2022-11-15T13:43:27;12.40;99.90
52459;DHT22;38372;52.902;6.024;2022-11-15T13:46:15;12.30;99.90
52459;DHT22;38372;52.902;6.024;2022-11-15T13:48:44;12.30;99.90
52459;DHT22;38372;52.902;6.024;2022-11-15T13:51:33;12.20;99.90
52459;DHT22;38372;52.902;6.024;2022-11-15T13:54:07;12.20;99.90
52459;DHT22;38372;52.902;6.024;2022-11-15T13:56:36;12.10;99.90
52459;DHT22;38372;52.902;6.024;2022-11-15T13:59:30;12.10;99.90
52459;DHT22;38372;52.902;6.024;2022-11-15T14:02:01;12.00;99.90
52459;DHT22;38372;52.902;6.024;2022-11-15T14:04:38;12.00;99.90
52459;DHT22;38372;52.902;6.024;2022-11-15T14:07:17;11.90;99.90
52459;DHT22;38372;52.902;6.024;2022-11-15T14:09:45;11.90;99.90
52459;DHT22;38372;52.902;6.024;2022-11-15T14:14:53;11.80;99.90
52459;DHT22;38372;52.902;6.024;2022-11-15T14:17:32;11.70;99.90
52459;DHT22;38372;52.902;6.024;2022-11-15T14:20:02;11.70;99.90
52459;DHT22;38372;52.902;6.024;2022-11-15T14:22:56;11.60;99.90
52459;DHT22;38372;52.902;6.024;2022-11-15T14:25:24;11.60;99.90
52459;DHT22;38372;52.902;6.024;2022-11-15T14:28:28;11.50;99.90
52459;DHT22;38372;52.902;6.024;2022-11-15T14:30:57;11.50;99.90
52459;DHT22;38372;52.902;6.024;2022-11-15T14:36:04;11.40;99.90
52459;DHT22;38372;52.902;6.024;2022-11-15T14:38:31;11.40;99.90
52459;DHT22;38372;52.902;6.024;2022-11-15T14:40:58;11.40;99.90
52459;DHT22;38372;52.902;6.024;2022-11-15T14:43:24;11.40;99.90
52459;DHT22;38372;52.902;6.024;2022-11-15T14:45:51;11.40;99.90
52459;DHT22;38372;52.902;6.024;2022-11-15T14:48:17;11.30;99.90
52459;DHT22;38372;52.902;6.024;2022-11-15T14:50:44;11.30;99.90
52459;DHT22;38372;52.902;6.024;2022-11-15T14:53:18;11.30;99.90
52459;DHT22;38372;52.902;6.024;2022-11-15T14:55:45;11.30;99.90
52459;DHT22;38372;52.902;6.024;2022-11-15T14:58:12;11.20;99.90
52459;DHT22;38372;52.902;6.024;2022-11-15T15:00:40;11.20;99.90
52459;DHT22;38372;52.902;6.024;2022-11-15T15:03:07;11.20;99.90
52459;DHT22;38372;52.902;6.024;2022-11-15T15:08:02;11.10;99.90
52459;DHT22;38372;52.902;6.024;2022-11-15T15:10:35;11.10;99.90
52459;DHT22;38372;52.902;6.024;2022-11-15T15:13:03;11.00;99.90
52459;DHT22;38372;52.902;6.024;2022-11-15T15:15:34;10.90;99.90
52459;DHT22;38372;52.902;6.024;2022-11-15T15:18:02;10.90;99.90
52459;DHT22;38372;52.902;6.024;2022-11-15T15:20:29;10.80;99.90
52459;DHT22;38372;52.902;6.024;2022-11-15T15:22:56;10.80;99.90
52459;DHT22;38372;52.902;6.024;2022-11-15T15:25:34;10.80;99.90
52459;DHT22;38372;52.902;6.024;2022-11-15T15:28:03;10.70;99.90
52459;DHT22;38372;52.902;6.024;2022-11-15T15:30:30;10.70;99.90
52459;DHT22;38372;52.902;6.024;2022-11-15T15:32:57;10.60;99.90
52459;DHT22;38372;52.902;6.024;2022-11-15T15:35:29;10.60;99.90
52459;DHT22;38372;52.902;6.024;2022-11-15T15:37:57;10.60;99.90
52459;DHT22;38372;52.902;6.024;2022-11-15T15:40:25;10.50;99.90
52459;DHT22;38372;52.902;6.024;2022-11-15T15:42:52;10.50;99.90
52459;DHT22;38372;52.902;6.024;2022-11-15T15:45:19;10.50;99.90
52459;DHT22;38372;52.902;6.024;2022-11-15T15:47:46;10.40;99.90
52459;DHT22;38372;52.902;6.024;2022-11-15T15:50:44;10.40;99.90
52459;DHT22;38372;52.902;6.024;2022-11-15T15:53:12;10.40;99.90
52459;DHT22;38372;52.902;6.024;2022-11-15T15:55:38;10.50;99.90
52459;DHT22;38372;52.902;6.024;2022-11-15T15:58:05;10.50;99.90
52459;DHT22;38372;52.902;6.024;2022-11-15T16:00:32;10.50;99.90
52459;DHT22;38372;52.902;6.024;2022-11-15T16:02:59;10.50;99.90
52459;DHT22;38372;52.902;6.024;2022-11-15T16:05:26;10.50;99.90
52459;DHT22;38372;52.902;6.024;2022-11-15T16:07:52;10.60;99.90
52459;DHT22;38372;52.902;6.024;2022-11-15T16:10:30;10.60;99.90
52459;DHT22;38372;52.902;6.024;2022-11-15T16:12:57;10.70;99.90
52459;DHT22;38372;52.902;6.024;2022-11-15T16:15:27;10.70;99.90
52459;DHT22;38372;52.902;6.024;2022-11-15T16:17:57;10.70;99.90
52459;DHT22;38372;52.902;6.024;2022-11-15T16:20:41;10.80;99.90
52459;DHT22;38372;52.902;6.024;2022-11-15T16:23:14;10.80;99.90
52459;DHT22;38372;52.902;6.024;2022-11-15T16:25:54;10.80;99.90
52459;DHT22;38372;52.902;6.024;2022-11-15T16:28:22;10.90;99.90
52459;DHT22;38372;52.902;6.024;2022-11-15T16:30:49;10.90;99.90
52459;DHT22;38372;52.902;6.024;2022-11-15T16:33:24;10.90;99.90
52459;DHT22;38372;52.902;6.024;2022-11-15T16:35:51;10.90;99.90
52459;DHT22;38372;52.902;6.024;2022-11-15T16:38:18;11.00;99.90
52459;DHT22;38372;52.902;6.024;2022-11-15T16:40:44;11.00;99.90
52459;DHT22;38372;52.902;6.024;2022-11-15T16:43:11;11.10;99.90
52459;DHT22;38372;52.902;6.024;2022-11-15T16:45:38;11.10;99.90
52459;DHT22;38372;52.902;6.024;2022-11-15T16:48:05;11.10;99.90
52459;DHT22;38372;52.902;6.024;2022-11-15T16:50:33;11.20;99.90
52459;DHT22;38372;52.902;6.024;2022-11-15T16:53:06;11.20;99.90
52459;DHT22;38372;52.902;6.024;2022-11-15T16:55:33;11.20;99.90
52459;DHT22;38372;52.902;6.024;2022-11-15T16:57:59;11.20;99.90
52459;DHT22;38372;52.902;6.024;2022-11-15T17:00:26;11.30;99.90
52459;DHT22;38372;52.902;6.024;2022-11-15T17:02:53;11.30;99.90
52459;DHT22;38372;52.902;6.024;2022-11-15T17:05:22;11.30;99.90
52459;DHT22;38372;52.902;6.024;2022-11-15T17:07:50;11.40;99.90
52459;DHT22;38372;52.902;6.024;2022-11-15T17:10:24;11.40;99.90
52459;DHT22;38372;52.902;6.024;2022-11-15T17:12:51;11.40;99.90
52459;DHT22;38372;52.902;6.024;2022-11-15T17:15:18;11.40;99.90
52459;DHT22;38372;52.902;6.024;2022-11-15T17:17:50;11.50;99.90
52459;DHT22;38372;52.902;6.024;2022-11-15T17:20:19;11.40;99.90
52459;DHT22;38372;52.902;6.024;2022-11-15T17:22:45;11.50;99.90
52459;DHT22;38372;52.902;6.024;2022-11-15T17:25:13;11.50;99.90
52459;DHT22;38372;52.902;6.024;2022-11-15T17:27:39;11.50;99.90
52459;DHT22;38372;52.902;6.024;2022-11-15T17:30:07;11.50;99.90
52459;DHT22;38372;52.902;6.024;2022-11-15T17:32:35;11.60;99.90
52459;DHT22;38372;52.902;6.024;2022-11-15T17:35:03;11.60;99.90
52459;DHT22;38372;52.902;6.024;2022-11-15T17:37:32;11.60;99.90
52459;DHT22;38372;52.902;6.024;2022-11-15T17:39:59;11.60;99.90
52459;DHT22;38372;52.902;6.024;2022-11-15T17:42:25;11.60;99.90
52459;DHT22;38372;52.902;6.024;2022-11-15T17:44:52;11.60;99.90
52459;DHT22;38372;52.902;6.024;2022-11-15T17:47:18;11.60;99.90
52459;DHT22;38372;52.902;6.024;2022-11-15T17:49:45;11.60;99.90
52459;DHT22;38372;52.902;6.024;2022-11-15T17:52:12;11.60;99.90
52459;DHT22;38372;52.902;6.024;2022-11-15T17:54:38;11.60;99.90
52459;DHT22;38372;52.902;6.024;2022-11-15T17:57:04;11.60;99.90
52459;DHT22;38372;52.902;6.024;2022-11-15T17:59:30;11.60;99.90
52459;DHT22;38372;52.902;6.024;2022-11-15T18:01:56;11.60;99.90
52459;DHT22;38372;52.902;6.024;2022-11-15T18:04:23;11.60;99.90
52459;DHT22;38372;52.902;6.024;2022-11-15T18:06:53;11.70;99.90
52459;DHT22;38372;52.902;6.024;2022-11-15T18:09:20;11.70;99.90
52459;DHT22;38372;52.902;6.024;2022-11-15T18:11:46;11.70;99.90
52459;DHT22;38372;52.902;6.024;2022-11-15T18:14:17;11.70;99.90
52459;DHT22;38372;52.902;6.024;2022-11-15T18:16:43;11.60;99.90
52459;DHT22;38372;52.902;6.024;2022-11-15T18:19:12;11.60;99.90
52459;DHT22;38372;52.902;6.024;2022-11-15T18:21:44;11.60;99.90
52459;DHT22;38372;52.902;6.024;2022-11-15T18:26:56;11.60;99.90
52459;DHT22;38372;52.902;6.024;2022-11-15T18:29:22;11.60;99.90
52459;DHT22;38372;52.902;6.024;2022-11-15T18:31:52;11.70;99.90
52459;DHT22;38372;52.902;6.024;2022-11-15T18:34:26;11.70;99.90
52459;DHT22;38372;52.902;6.024;2022-11-15T18:37:00;11.70;99.90
52459;DHT22;38372;52.902;6.024;2022-11-15T18:39:27;11.70;99.90
52459;DHT22;38372;52.902;6.024;2022-11-15T18:41:54;11.70;99.90
52459;DHT22;38372;52.902;6.024;2022-11-15T18:44:23;11.70;99.90
52459;DHT22;38372;52.902;6.024;2022-11-15T18:46:50;11.70;99.90
52459;DHT22;38372;52.902;6.024;2022-11-15T18:49:17;11.70;99.90
52459;DHT22;38372;52.902;6.024;2022-11-15T18:51:51;11.70;99.90
52459;DHT22;38372;52.902;6.024;2022-11-15T18:54:17;11.70;99.90
52459;DHT22;38372;52.902;6.024;2022-11-15T18:56:44;11.70;99.90
52459;DHT22;38372;52.902;6.024;2022-11-15T18:59:10;11.70;99.90
52459;DHT22;38372;52.902;6.024;2022-11-15T19:01:42;11.70;99.90
52459;DHT22;38372;52.902;6.024;2022-11-15T19:04:13;11.70;99.90
52459;DHT22;38372;52.902;6.024;2022-11-15T19:06:44;11.80;99.90
52459;DHT22;38372;52.902;6.024;2022-11-15T19:09:11;11.80;99.90
52459;DHT22;38372;52.902;6.024;2022-11-15T19:11:40;11.70;99.90
52459;DHT22;38372;52.902;6.024;2022-11-15T19:14:12;11.70;99.90
52459;DHT22;38372;52.902;6.024;2022-11-15T19:16:40;11.70;99.90
52459;DHT22;38372;52.902;6.024;2022-11-15T19:19:11;11.60;99.90
52459;DHT22;38372;52.902;6.024;2022-11-15T19:21:38;11.60;99.90
52459;DHT22;38372;52.902;6.024;2022-11-15T19:24:04;11.50;99.90
52459;DHT22;38372;52.902;6.024;2022-11-15T19:26:30;11.50;99.90
52459;DHT22;38372;52.902;6.024;2022-11-15T19:28:57;11.40;99.90
52459;DHT22;38372;52.902;6.024;2022-11-15T19:31:25;11.40;99.90
52459;DHT22;38372;52.902;6.024;2022-11-15T19:33:51;11.30;99.90
52459;DHT22;38372;52.902;6.024;2022-11-15T19:36:20;11.20;99.90
52459;DHT22;38372;52.902;6.024;2022-11-15T19:38:46;11.10;99.90
52459;DHT22;38372;52.902;6.024;2022-11-15T19:41:17;11.00;99.90
52459;DHT22;38372;52.902;6.024;2022-11-15T19:43:44;10.90;99.90
52459;DHT22;38372;52.902;6.024;2022-11-15T19:46:13;10.90;99.90
52459;DHT22;38372;52.902;6.024;2022-11-15T19:48:40;10.90;99.90
52459;DHT22;38372;52.902;6.024;2022-11-15T19:51:10;10.80;99.90
52459;DHT22;38372;52.902;6.024;2022-11-15T19:53:38;10.80;99.90
52459;DHT22;38372;52.902;6.024;2022-11-15T19:56:12;10.70;99.90
52459;DHT22;38372;52.902;6.024;2022-11-15T19:58:38;10.70;99.90
52459;DHT22;38372;52.902;6.024;2022-11-15T20:01:22;10.70;99.90
52459;DHT22;38372;52.902;6.024;2022-11-15T20:03:50;10.70;99.90
52459;DHT22;38372;52.902;6.024;2022-11-15T20:06:28;10.60;99.90
52459;DHT22;38372;52.902;6.024;2022-11-15T20:08:55;10.60;99.90
52459;DHT22;38372;52.902;6.024;2022-11-15T20:11:21;10.50;99.90
52459;DHT22;38372;52.902;6.024;2022-11-15T20:13:51;10.50;99.90
52459;DHT22;38372;52.902;6.024;2022-11-15T20:16:22;10.50;99.90
52459;DHT22;38372;52.902;6.024;2022-11-15T20:18:49;10.50;99.90
52459;DHT22;38372;52.902;6.024;2022-11-15T20:21:16;10.50;99.90
52459;DHT22;38372;52.902;6.024;2022-11-15T20:23:42;10.40;99.90
52459;DHT22;38372;52.902;6.024;2022-11-15T20:26:10;10.40;99.90
52459;DHT22;38372;52.902;6.024;2022-11-15T20:28:39;10.40;99.90
52459;DHT22;38372;52.902;6.024;2022-11-15T20:31:09;10.40;99.90
52459;DHT22;38372;52.902;6.024;2022-11-15T20:33:36;10.40;99.90
52459;DHT22;38372;52.902;6.024;2022-11-15T20:36:06;10.40;99.90
52459;DHT22;38372;52.902;6.024;2022-11-15T20:38:32;10.40;99.90
52459;DHT22;38372;52.902;6.024;2022-11-15T20:40:58;10.40;99.90
52459;DHT22;38372;52.902;6.024;2022-11-15T20:43:25;10.40;99.90
52459;DHT22;38372;52.902;6.024;2022-11-15T20:45:55;10.40;99.90
52459;DHT22;38372;52.902;6.024;2022-11-15T20:48:28;10.50;99.90
52459;DHT22;38372;52.902;6.024;2022-11-15T20:51:09;10.40;99.90
52459;DHT22;38372;52.902;6.024;2022-11-15T20:53:37;10.40;99.90
52459;DHT22;38372;52.902;6.024;2022-11-15T20:56:12;10.40;99.90
52459;DHT22;38372;52.902;6.024;2022-11-15T20:58:38;10.40;99.90
52459;DHT22;38372;52.902;6.024;2022-11-15T21:01:06;10.40;99.90
52459;DHT22;38372;52.902;6.024;2022-11-15T21:03:33;10.30;99.90
52459;DHT22;38372;52.902;6.024;2022-11-15T21:05:59;10.40;99.90
52459;DHT22;38372;52.902;6.024;2022-11-15T21:08:25;10.40;99.90
52459;DHT22;38372;52.902;6.024;2022-11-15T21:10:52;10.40;99.90
52459;DHT22;38372;52.902;6.024;2022-11-15T21:13:37;10.30;99.90
52459;DHT22;38372;52.902;6.024;2022-11-15T21:16:03;10.40;99.90
52459;DHT22;38372;52.902;6.024;2022-11-15T21:18:30;10.30;99.90
52459;DHT22;38372;52.902;6.024;2022-11-15T21:21:04;10.30;99.90
52459;DHT22;38372;52.902;6.024;2022-11-15T21:23:30;10.30;99.90
52459;DHT22;38372;52.902;6.024;2022-11-15T21:25:56;10.30;99.90
52459;DHT22;38372;52.902;6.024;2022-11-15T21:28:22;10.30;99.90
52459;DHT22;38372;52.902;6.024;2022-11-15T21:30:56;10.30;99.90
52459;DHT22;38372;52.902;6.024;2022-11-15T21:33:22;10.30;99.90
52459;DHT22;38372;52.902;6.024;2022-11-15T21:35:54;10.30;99.90
52459;DHT22;38372;52.902;6.024;2022-11-15T21:38:21;10.30;99.90
52459;DHT22;38372;52.902;6.024;2022-11-15T21:40:51;10.40;99.90
52459;DHT22;38372;52.902;6.024;2022-11-15T21:43:18;10.30;99.90
52459;DHT22;38372;52.902;6.024;2022-11-15T21:45:55;10.40;99.90
52459;DHT22;38372;52.902;6.024;2022-11-15T21:48:21;10.30;99.90
52459;DHT22;38372;52.902;6.024;2022-11-15T21:50:59;10.40;99.90
52459;DHT22;38372;52.902;6.024;2022-11-15T21:53:26;10.40;99.90
52459;DHT22;38372;52.902;6.024;2022-11-15T21:55:53;10.40;99.90
52459;DHT22;38372;52.902;6.024;2022-11-15T21:58:19;10.40;99.90